Yorktown Express — WDD6127 — position and weather

sailwx.info

Track history (hours):
 
Tides and Currents Weather Stations Pressure Air Temp Water Temp Dewpoint Dewpoint Depression Visibility Wind Speed Wind Dir Waves Ship Positions

Yorktown Express

Owner: Marine Transport Management, Inc., Jacksonville, FL. More information available from US FCC via Universal Licensing System and Coast Guard Vessel Documentation Center.

Last reported at 2016-Feb-09 06:10 UTC. Time now 2016-Feb-09 11:37 UTC.
Position N 27°02' W 079°43'.

Type: Ship. MMSI: 367168650.

Date/timePositionNaut miles runAvg speedWind from/ knotsBaromVisibWave heightAir tempDewpointWater temp
2016-Feb-09 06:10N 27°02' W 079°43'2121.5
2016-Feb-09 05:11N 26°41' W 079°45'1421.9
2016-Feb-09 04:33N 26°28' W 079°46'2221.7
2016-Feb-09 03:33N 26°06' W 079°48'2121.4
2016-Feb-09 02:33N 25°45' W 079°52'2121.1
2016-Feb-09 01:33N 25°24' W 079°56'  
2016-Feb-06 10:33N 29°41' W 094°60'0 0.0
2016-Feb-06 09:33N 29°41' W 094°60'0 0.0
2016-Feb-06 08:33N 29°41' W 094°60'0 0.0
2016-Feb-06 07:33N 29°41' W 094°60'0 0.0
2016-Feb-06 06:33N 29°41' W 094°60'0 0.0
2016-Feb-06 05:33N 29°41' W 094°60'0 0.0
2016-Feb-06 04:33N 29°41' W 094°60'0 0.0
2016-Feb-06 03:33N 29°41' W 094°60'0 0.0
2016-Feb-06 02:33N 29°41' W 094°60'0 0.0
2016-Feb-06 01:33N 29°41' W 094°60'0 0.0
2016-Feb-06 00:33N 29°41' W 094°60'0 0.0
2016-Feb-05 23:33N 29°41' W 094°60'0 0.0
2016-Feb-05 22:33N 29°41' W 094°60'0 0.0
2016-Feb-05 21:33N 29°41' W 094°60'0 0.0
2016-Feb-05 20:33N 29°41' W 094°60'0 0.0
2016-Feb-05 19:33N 29°41' W 094°60'0 0.0
2016-Feb-05 18:33N 29°41' W 094°60'0 0.0
2016-Feb-05 17:33N 29°41' W 094°60'0 0.0
2016-Feb-05 16:33N 29°41' W 094°60'0 0.0
2016-Feb-05 15:33N 29°41' W 094°60'0 0.0
2016-Feb-05 14:33N 29°41' W 094°60'0 0.2
2016-Feb-05 13:33N 29°41' W 094°59'8 7.9
2016-Feb-05 12:33N 29°34' W 094°55'1414.0
2016-Feb-05 11:34N 29°22' W 094°48'25514.5
2016-Feb-04 18:00N 27°06' W 090°42'5117.1 360 / 251026.210.8 4.021.010.025.0
2016-Feb-04 15:00N 26°48' W 089°48'53117.2 360 / 281024.410.8 4.019.110.025.0
2016-Feb-03 08:09N 25°13' W 080°06'1016.1
2016-Feb-03 07:33N 25°22' W 080°02'1616.5
2016-Feb-03 06:34N 25°38' W 079°59'1717.0
2016-Feb-03 05:34N 25°55' W 080°01'1211.6
2016-Feb-03 04:33N 26°06' W 080°07'1 1.2
2016-Feb-03 03:32N 26°04' W 080°07'0 0.0
2016-Feb-03 02:32N 26°04' W 080°07'0 0.0
2016-Feb-03 01:32N 26°04' W 080°07'0 0.0
2016-Feb-03 00:32N 26°04' W 080°07'0 0.0
2016-Feb-02 23:32N 26°04' W 080°07'0 0.0
2016-Feb-02 22:32N 26°04' W 080°07'0 0.0
2016-Feb-02 21:32N 26°04' W 080°07'0 0.0
2016-Feb-02 20:29N 26°04' W 080°07'0 0.0
2016-Feb-02 19:29N 26°04' W 080°07'0 0.0
2016-Feb-02 18:29N 26°04' W 080°07'0 0.0
2016-Feb-02 17:32N 26°04' W 080°07'0 0.0
2016-Feb-02 16:32N 26°04' W 080°07'0 0.0
2016-Feb-02 15:32N 26°04' W 080°07'0 0.0
2016-Feb-02 14:32N 26°04' W 080°07'0 0.0
2016-Feb-02 13:32N 26°04' W 080°07'0 0.0
2016-Feb-02 12:32N 26°04' W 080°07'0 0.0
2016-Feb-02 11:32N 26°04' W 080°07'3 3.1
2016-Feb-02 10:33N 26°06' W 080°04'6 5.9
2016-Feb-02 09:33N 26°08' W 079°58'1111.1
2016-Feb-02 08:33N 26°19' W 079°57'1616.0
2016-Feb-02 07:33N 26°36' W 079°57'1615.8
2016-Feb-02 06:33N 26°51' W 079°58'1514.5
2016-Feb-02 05:33N 27°06' W 079°57'  
Track history (hours):
 
Tides and Currents Weather Stations Pressure Air Temp Water Temp Dewpoint Dewpoint Depression Visibility Wind Speed Wind Dir Waves Ship Positions

Yorktown Express

Owner: Marine Transport Management, Inc., Jacksonville, FL. More information available from US FCC via Universal Licensing System and Coast Guard Vessel Documentation Center.

Last reported at 2016-Feb-09 06:10 UTC. Time now 2016-Feb-09 11:37 UTC.
Position N 27°02' W 079°43'.

Type: Ship. MMSI: 367168650.

Date/timePositionNaut miles runAvg speedWind from/ knotsBaromVisibWave heightAir tempDewpointWater temp
2016-Feb-09 06:10N 27°02' W 079°43'2121.5
2016-Feb-09 05:11N 26°41' W 079°45'1421.9
2016-Feb-09 04:33N 26°28' W 079°46'2221.7
2016-Feb-09 03:33N 26°06' W 079°48'2121.4
2016-Feb-09 02:33N 25°45' W 079°52'2121.1
2016-Feb-09 01:33N 25°24' W 079°56'  
2016-Feb-06 10:33N 29°41' W 094°60'0 0.0
2016-Feb-06 09:33N 29°41' W 094°60'0 0.0
2016-Feb-06 08:33N 29°41' W 094°60'0 0.0
2016-Feb-06 07:33N 29°41' W 094°60'0 0.0
2016-Feb-06 06:33N 29°41' W 094°60'0 0.0
2016-Feb-06 05:33N 29°41' W 094°60'0 0.0
2016-Feb-06 04:33N 29°41' W 094°60'0 0.0
2016-Feb-06 03:33N 29°41' W 094°60'0 0.0
2016-Feb-06 02:33N 29°41' W 094°60'0 0.0
2016-Feb-06 01:33N 29°41' W 094°60'0 0.0
2016-Feb-06 00:33N 29°41' W 094°60'0 0.0
2016-Feb-05 23:33N 29°41' W 094°60'0 0.0
2016-Feb-05 22:33N 29°41' W 094°60'0 0.0
2016-Feb-05 21:33N 29°41' W 094°60'0 0.0
2016-Feb-05 20:33N 29°41' W 094°60'0 0.0
2016-Feb-05 19:33N 29°41' W 094°60'0 0.0
2016-Feb-05 18:33N 29°41' W 094°60'0 0.0
2016-Feb-05 17:33N 29°41' W 094°60'0 0.0
2016-Feb-05 16:33N 29°41' W 094°60'0 0.0
2016-Feb-05 15:33N 29°41' W 094°60'0 0.0
2016-Feb-05 14:33N 29°41' W 094°60'0 0.2
2016-Feb-05 13:33N 29°41' W 094°59'8 7.9
2016-Feb-05 12:33N 29°34' W 094°55'1414.0
2016-Feb-05 11:34N 29°22' W 094°48'25514.5
2016-Feb-04 18:00N 27°06' W 090°42'5117.1 360 / 251026.210.8 4.021.010.025.0
2016-Feb-04 15:00N 26°48' W 089°48'53117.2 360 / 281024.410.8 4.019.110.025.0
2016-Feb-03 08:09N 25°13' W 080°06'1016.1
2016-Feb-03 07:33N 25°22' W 080°02'1616.5
2016-Feb-03 06:34N 25°38' W 079°59'1717.0
2016-Feb-03 05:34N 25°55' W 080°01'1211.6
2016-Feb-03 04:33N 26°06' W 080°07'1 1.2
2016-Feb-03 03:32N 26°04' W 080°07'0 0.0
2016-Feb-03 02:32N 26°04' W 080°07'0 0.0
2016-Feb-03 01:32N 26°04' W 080°07'0 0.0
2016-Feb-03 00:32N 26°04' W 080°07'0 0.0
2016-Feb-02 23:32N 26°04' W 080°07'0 0.0
2016-Feb-02 22:32N 26°04' W 080°07'0 0.0
2016-Feb-02 21:32N 26°04' W 080°07'0 0.0
2016-Feb-02 20:29N 26°04' W 080°07'0 0.0
2016-Feb-02 19:29N 26°04' W 080°07'0 0.0
2016-Feb-02 18:29N 26°04' W 080°07'0 0.0
2016-Feb-02 17:32N 26°04' W 080°07'0 0.0
2016-Feb-02 16:32N 26°04' W 080°07'0 0.0
2016-Feb-02 15:32N 26°04' W 080°07'0 0.0
2016-Feb-02 14:32N 26°04' W 080°07'0 0.0
2016-Feb-02 13:32N 26°04' W 080°07'0 0.0
2016-Feb-02 12:32N 26°04' W 080°07'0 0.0
2016-Feb-02 11:32N 26°04' W 080°07'3 3.1
2016-Feb-02 10:33N 26°06' W 080°04'6 5.9
2016-Feb-02 09:33N 26°08' W 079°58'1111.1
2016-Feb-02 08:33N 26°19' W 079°57'1616.0
2016-Feb-02 07:33N 26°36' W 079°57'1615.8
2016-Feb-02 06:33N 26°51' W 079°58'1514.5
2016-Feb-02 05:33N 27°06' W 079°57'  

Dump ship's entire track history